sensor_id;sensor_type;location;lat;lon;timestamp;pressure;altitude;pressure_sealevel;temperature;humidity
52469;BME280;38381;53.688;10.776;2024-02-14T00:01:50;101287.66;;;4.97;87.46
52469;BME280;38381;53.688;10.776;2024-02-14T00:06:50;101285.69;;;4.90;88.26
52469;BME280;38381;53.688;10.776;2024-02-14T00:11:51;101289.00;;;4.88;88.54
52469;BME280;38381;53.688;10.776;2024-02-14T00:16:52;101285.84;;;4.72;88.25
52469;BME280;38381;53.688;10.776;2024-02-14T00:21:52;101279.06;;;4.74;88.25
52469;BME280;38381;53.688;10.776;2024-02-14T00:26:52;101281.00;;;4.57;88.36
52469;BME280;38381;53.688;10.776;2024-02-14T00:31:53;101279.41;;;4.61;88.80
52469;BME280;38381;53.688;10.776;2024-02-14T00:36:53;101272.59;;;4.61;88.66
52469;BME280;38381;53.688;10.776;2024-02-14T00:41:54;101269.59;;;4.51;88.69
52469;BME280;38381;53.688;10.776;2024-02-14T00:46:56;101270.34;;;4.48;88.67
52469;BME280;38381;53.688;10.776;2024-02-14T00:51:59;101258.03;;;4.39;89.10
52469;BME280;38381;53.688;10.776;2024-02-14T00:56:59;101256.31;;;4.40;89.00
52469;BME280;38381;53.688;10.776;2024-02-14T01:02:00;101258.91;;;4.40;88.64
52469;BME280;38381;53.688;10.776;2024-02-14T01:07:00;101249.94;;;4.30;88.76
52469;BME280;38381;53.688;10.776;2024-02-14T01:12:00;101247.31;;;4.50;87.95
52469;BME280;38381;53.688;10.776;2024-02-14T01:17:01;101233.56;;;4.27;87.64
52469;BME280;38381;53.688;10.776;2024-02-14T01:22:01;101247.34;;;4.29;88.27
52469;BME280;38381;53.688;10.776;2024-02-14T01:27:03;101253.53;;;4.13;88.37
52469;BME280;38381;53.688;10.776;2024-02-14T01:32:04;101245.91;;;4.14;88.61
52469;BME280;38381;53.688;10.776;2024-02-14T01:37:04;101235.50;;;4.11;89.11
52469;BME280;38381;53.688;10.776;2024-02-14T01:42:04;101224.69;;;4.18;88.42
52469;BME280;38381;53.688;10.776;2024-02-14T01:47:07;101218.16;;;4.06;88.59
52469;BME280;38381;53.688;10.776;2024-02-14T01:52:07;101209.50;;;4.02;88.75
52469;BME280;38381;53.688;10.776;2024-02-14T01:57:08;101212.31;;;4.08;88.05
52469;BME280;38381;53.688;10.776;2024-02-14T02:02:09;101205.53;;;4.10;88.58
52469;BME280;38381;53.688;10.776;2024-02-14T02:07:09;101204.16;;;4.18;87.22
52469;BME280;38381;53.688;10.776;2024-02-14T02:12:10;101206.16;;;4.05;88.48
52469;BME280;38381;53.688;10.776;2024-02-14T02:17:10;101202.28;;;4.14;88.45
52469;BME280;38381;53.688;10.776;2024-02-14T02:22:11;101196.91;;;4.08;89.12
52469;BME280;38381;53.688;10.776;2024-02-14T02:27:12;101193.50;;;4.09;89.89
52469;BME280;38381;53.688;10.776;2024-02-14T02:32:14;101188.81;;;3.99;90.62
52469;BME280;38381;53.688;10.776;2024-02-14T02:37:16;101189.50;;;3.95;92.26
52469;BME280;38381;53.688;10.776;2024-02-14T02:42:18;101190.78;;;3.83;93.48
52469;BME280;38381;53.688;10.776;2024-02-14T02:47:18;101189.16;;;3.86;93.71
52469;BME280;38381;53.688;10.776;2024-02-14T02:52:19;101191.63;;;4.05;93.48
52469;BME280;38381;53.688;10.776;2024-02-14T02:57:20;101175.91;;;3.97;94.08
52469;BME280;38381;53.688;10.776;2024-02-14T03:02:20;101175.75;;;3.93;94.25
52469;BME280;38381;53.688;10.776;2024-02-14T03:07:21;101160.97;;;3.87;95.03
52469;BME280;38381;53.688;10.776;2024-02-14T03:12:23;101156.03;;;3.92;96.10
52469;BME280;38381;53.688;10.776;2024-02-14T03:17:24;101162.91;;;3.93;95.66
52469;BME280;38381;53.688;10.776;2024-02-14T03:22:24;101157.72;;;3.91;96.32
52469;BME280;38381;53.688;10.776;2024-02-14T03:27:24;101151.41;;;4.04;96.23
52469;BME280;38381;53.688;10.776;2024-02-14T03:32:27;101141.97;;;3.82;98.08
52469;BME280;38381;53.688;10.776;2024-02-14T03:37:27;101137.84;;;3.86;98.40
52469;BME280;38381;53.688;10.776;2024-02-14T03:42:28;101132.28;;;3.97;98.12
52469;BME280;38381;53.688;10.776;2024-02-14T03:47:28;101128.69;;;3.92;98.10
52469;BME280;38381;53.688;10.776;2024-02-14T03:52:30;101126.91;;;3.91;98.88
52469;BME280;38381;53.688;10.776;2024-02-14T03:57:32;101113.31;;;3.71;100.00
52469;BME280;38381;53.688;10.776;2024-02-14T04:02:35;101115.00;;;3.92;99.75
52469;BME280;38381;53.688;10.776;2024-02-14T04:07:36;101112.91;;;4.04;99.20
52469;BME280;38381;53.688;10.776;2024-02-14T04:12:37;101102.41;;;3.98;99.77
52469;BME280;38381;53.688;10.776;2024-02-14T04:17:39;101101.88;;;4.07;99.72
52469;BME280;38381;53.688;10.776;2024-02-14T04:22:39;101101.03;;;4.08;99.06
52469;BME280;38381;53.688;10.776;2024-02-14T04:27:40;101103.34;;;4.00;99.57
52469;BME280;38381;53.688;10.776;2024-02-14T04:32:40;101106.88;;;4.03;99.28
52469;BME280;38381;53.688;10.776;2024-02-14T04:37:41;101105.69;;;3.95;100.00
52469;BME280;38381;53.688;10.776;2024-02-14T04:42:46;101089.78;;;3.81;100.00
52469;BME280;38381;53.688;10.776;2024-02-14T04:47:47;101089.34;;;3.92;100.00
52469;BME280;38381;53.688;10.776;2024-02-14T04:52:47;101077.44;;;3.94;100.00
52469;BME280;38381;53.688;10.776;2024-02-14T04:57:47;101069.91;;;3.98;100.00
52469;BME280;38381;53.688;10.776;2024-02-14T05:02:48;101068.75;;;3.90;100.00
52469;BME280;38381;53.688;10.776;2024-02-14T05:07:49;101071.47;;;3.95;100.00
52469;BME280;38381;53.688;10.776;2024-02-14T05:12:50;101078.06;;;3.88;100.00
52469;BME280;38381;53.688;10.776;2024-02-14T05:17:51;101071.16;;;3.87;100.00
52469;BME280;38381;53.688;10.776;2024-02-14T05:22:52;101068.97;;;3.96;100.00
52469;BME280;38381;53.688;10.776;2024-02-14T05:27:52;101067.50;;;4.03;100.00
52469;BME280;38381;53.688;10.776;2024-02-14T05:32:54;101065.47;;;3.94;100.00
52469;BME280;38381;53.688;10.776;2024-02-14T05:37:54;101064.06;;;4.02;100.00
52469;BME280;38381;53.688;10.776;2024-02-14T05:42:56;101057.88;;;3.97;100.00
52469;BME280;38381;53.688;10.776;2024-02-14T05:47:56;101050.72;;;3.89;100.00
52469;BME280;38381;53.688;10.776;2024-02-14T05:52:58;101048.06;;;3.87;100.00
52469;BME280;38381;53.688;10.776;2024-02-14T05:57:58;101044.19;;;3.97;100.00
52469;BME280;38381;53.688;10.776;2024-02-14T06:02:59;101034.91;;;4.00;100.00
52469;BME280;38381;53.688;10.776;2024-02-14T06:08:00;101027.06;;;3.96;100.00
52469;BME280;38381;53.688;10.776;2024-02-14T06:13:03;101022.63;;;3.92;100.00
52469;BME280;38381;53.688;10.776;2024-02-14T06:18:03;101030.41;;;3.95;100.00
52469;BME280;38381;53.688;10.776;2024-02-14T06:23:04;101026.16;;;3.95;100.00
52469;BME280;38381;53.688;10.776;2024-02-14T06:28:04;101022.81;;;4.20;100.00
52469;BME280;38381;53.688;10.776;2024-02-14T06:33:05;101024.16;;;4.11;100.00
52469;BME280;38381;53.688;10.776;2024-02-14T06:38:05;101016.56;;;4.14;100.00
52469;BME280;38381;53.688;10.776;2024-02-14T06:43:06;101020.84;;;4.13;100.00
52469;BME280;38381;53.688;10.776;2024-02-14T06:48:07;101021.31;;;4.03;100.00
52469;BME280;38381;53.688;10.776;2024-02-14T06:53:08;101029.03;;;4.27;100.00
52469;BME280;38381;53.688;10.776;2024-02-14T06:58:09;101025.78;;;4.31;100.00
52469;BME280;38381;53.688;10.776;2024-02-14T07:03:09;101025.63;;;4.28;100.00
52469;BME280;38381;53.688;10.776;2024-02-14T07:08:10;101016.59;;;4.38;100.00
52469;BME280;38381;53.688;10.776;2024-02-14T07:13:10;101014.19;;;4.18;100.00
52469;BME280;38381;53.688;10.776;2024-02-14T07:18:11;101021.72;;;4.38;100.00
52469;BME280;38381;53.688;10.776;2024-02-14T07:23:11;101014.84;;;4.13;100.00
52469;BME280;38381;53.688;10.776;2024-02-14T07:28:12;101026.31;;;4.47;100.00
52469;BME280;38381;53.688;10.776;2024-02-14T07:33:12;101023.34;;;4.60;100.00
52469;BME280;38381;53.688;10.776;2024-02-14T07:38:13;101021.34;;;4.51;100.00
52469;BME280;38381;53.688;10.776;2024-02-14T07:43:14;101010.03;;;4.46;100.00
52469;BME280;38381;53.688;10.776;2024-02-14T07:48:14;101010.16;;;4.49;100.00
52469;BME280;38381;53.688;10.776;2024-02-14T07:53:15;101009.31;;;4.50;100.00
52469;BME280;38381;53.688;10.776;2024-02-14T07:58:16;100998.47;;;4.59;100.00
52469;BME280;38381;53.688;10.776;2024-02-14T08:03:16;101001.75;;;4.55;100.00
52469;BME280;38381;53.688;10.776;2024-02-14T08:08:16;101000.59;;;4.71;100.00
52469;BME280;38381;53.688;10.776;2024-02-14T08:13:17;100991.59;;;4.58;100.00
52469;BME280;38381;53.688;10.776;2024-02-14T08:18:17;100993.72;;;4.70;100.00
52469;BME280;38381;53.688;10.776;2024-02-14T08:23:18;100991.81;;;4.64;100.00
52469;BME280;38381;53.688;10.776;2024-02-14T08:28:20;100995.31;;;4.92;100.00
52469;BME280;38381;53.688;10.776;2024-02-14T08:33:21;100985.13;;;4.69;100.00
52469;BME280;38381;53.688;10.776;2024-02-14T08:38:21;100979.31;;;4.75;100.00
52469;BME280;38381;53.688;10.776;2024-02-14T08:43:22;100984.72;;;4.82;100.00
52469;BME280;38381;53.688;10.776;2024-02-14T08:48:25;100986.59;;;5.14;100.00
52469;BME280;38381;53.688;10.776;2024-02-14T08:53:27;100985.41;;;5.04;100.00
52469;BME280;38381;53.688;10.776;2024-02-14T08:58:27;100993.59;;;5.18;100.00
52469;BME280;38381;53.688;10.776;2024-02-14T09:03:28;100987.63;;;5.19;100.00
52469;BME280;38381;53.688;10.776;2024-02-14T09:08:30;100996.09;;;5.16;100.00
52469;BME280;38381;53.688;10.776;2024-02-14T09:13:31;100992.59;;;5.14;100.00
52469;BME280;38381;53.688;10.776;2024-02-14T09:18:31;100984.00;;;5.39;100.00
52469;BME280;38381;53.688;10.776;2024-02-14T09:23:32;100991.59;;;5.36;100.00
52469;BME280;38381;53.688;10.776;2024-02-14T09:28:33;100987.56;;;5.44;100.00
52469;BME280;38381;53.688;10.776;2024-02-14T09:33:35;100981.88;;;5.55;100.00
52469;BME280;38381;53.688;10.776;2024-02-14T09:38:36;100991.53;;;5.62;100.00
52469;BME280;38381;53.688;10.776;2024-02-14T09:43:38;100995.59;;;5.82;100.00
52469;BME280;38381;53.688;10.776;2024-02-14T09:48:45;100982.19;;;5.65;100.00
52469;BME280;38381;53.688;10.776;2024-02-14T09:53:46;100990.44;;;5.82;100.00
52469;BME280;38381;53.688;10.776;2024-02-14T09:58:47;100984.09;;;5.71;100.00
52469;BME280;38381;53.688;10.776;2024-02-14T10:03:55;100986.53;;;5.95;100.00
52469;BME280;38381;53.688;10.776;2024-02-14T10:08:56;100980.56;;;5.96;100.00
52469;BME280;38381;53.688;10.776;2024-02-14T10:13:57;100989.38;;;6.04;100.00
52469;BME280;38381;53.688;10.776;2024-02-14T10:19:02;100989.06;;;6.24;100.00
52469;BME280;38381;53.688;10.776;2024-02-14T10:24:04;100984.72;;;6.21;100.00
52469;BME280;38381;53.688;10.776;2024-02-14T10:29:05;100986.38;;;6.19;100.00
52469;BME280;38381;53.688;10.776;2024-02-14T10:34:07;100985.28;;;6.43;100.00
52469;BME280;38381;53.688;10.776;2024-02-14T10:39:09;100983.78;;;6.51;100.00
52469;BME280;38381;53.688;10.776;2024-02-14T10:44:11;100999.56;;;6.63;100.00
52469;BME280;38381;53.688;10.776;2024-02-14T10:49:14;100995.00;;;6.53;100.00
52469;BME280;38381;53.688;10.776;2024-02-14T10:54:16;101005.84;;;6.73;100.00
52469;BME280;38381;53.688;10.776;2024-02-14T10:59:21;100997.94;;;6.67;100.00
52469;BME280;38381;53.688;10.776;2024-02-14T11:04:23;101003.31;;;6.75;100.00
52469;BME280;38381;53.688;10.776;2024-02-14T11:09:32;100984.66;;;6.85;100.00
52469;BME280;38381;53.688;10.776;2024-02-14T11:14:34;100995.16;;;6.93;100.00
52469;BME280;38381;53.688;10.776;2024-02-14T11:19:35;100994.06;;;7.18;100.00
52469;BME280;38381;53.688;10.776;2024-02-14T11:24:36;100995.41;;;7.40;100.00
52469;BME280;38381;53.688;10.776;2024-02-14T11:29:40;100997.09;;;7.38;100.00
52469;BME280;38381;53.688;10.776;2024-02-14T11:34:41;100991.44;;;7.53;100.00
52469;BME280;38381;53.688;10.776;2024-02-14T11:39:42;100987.69;;;7.78;100.00
52469;BME280;38381;53.688;10.776;2024-02-14T11:44:45;100985.13;;;7.81;100.00
52469;BME280;38381;53.688;10.776;2024-02-14T11:49:46;100998.47;;;8.01;100.00
52469;BME280;38381;53.688;10.776;2024-02-14T11:54:47;100997.78;;;8.08;100.00
52469;BME280;38381;53.688;10.776;2024-02-14T11:59:50;101000.16;;;7.99;100.00
52469;BME280;38381;53.688;10.776;2024-02-14T12:04:53;101009.94;;;8.14;100.00
52469;BME280;38381;53.688;10.776;2024-02-14T12:09:55;101003.97;;;8.18;100.00
52469;BME280;38381;53.688;10.776;2024-02-14T12:14:55;101011.72;;;8.16;100.00
52469;BME280;38381;53.688;10.776;2024-02-14T12:20:10;101007.72;;;8.31;100.00
52469;BME280;38381;53.688;10.776;2024-02-14T12:25:13;101004.22;;;8.30;100.00
52469;BME280;38381;53.688;10.776;2024-02-14T12:30:14;101014.75;;;8.39;100.00
52469;BME280;38381;53.688;10.776;2024-02-14T12:35:16;101011.38;;;8.42;100.00
52469;BME280;38381;53.688;10.776;2024-02-14T12:40:17;101012.63;;;8.62;100.00
52469;BME280;38381;53.688;10.776;2024-02-14T12:45:20;101013.50;;;8.63;100.00
52469;BME280;38381;53.688;10.776;2024-02-14T12:50:20;101017.88;;;8.65;100.00
52469;BME280;38381;53.688;10.776;2024-02-14T12:55:21;101012.94;;;8.79;100.00
52469;BME280;38381;53.688;10.776;2024-02-14T13:00:24;101020.56;;;8.72;100.00
52469;BME280;38381;53.688;10.776;2024-02-14T13:05:24;101016.38;;;8.78;100.00
52469;BME280;38381;53.688;10.776;2024-02-14T13:10:26;101022.53;;;8.85;100.00
52469;BME280;38381;53.688;10.776;2024-02-14T13:15:26;101027.91;;;8.97;100.00
52469;BME280;38381;53.688;10.776;2024-02-14T13:20:27;101028.97;;;9.09;100.00
52469;BME280;38381;53.688;10.776;2024-02-14T13:25:28;101016.13;;;9.16;100.00
52469;BME280;38381;53.688;10.776;2024-02-14T13:30:28;101022.41;;;9.29;100.00
52469;BME280;38381;53.688;10.776;2024-02-14T13:35:30;101016.38;;;9.30;100.00
52469;BME280;38381;53.688;10.776;2024-02-14T13:40:32;101025.69;;;9.20;100.00
52469;BME280;38381;53.688;10.776;2024-02-14T13:45:43;101018.13;;;9.31;100.00
52469;BME280;38381;53.688;10.776;2024-02-14T13:50:44;101024.47;;;9.53;100.00
52469;BME280;38381;53.688;10.776;2024-02-14T13:55:44;101018.47;;;9.54;100.00
52469;BME280;38381;53.688;10.776;2024-02-14T14:00:45;101024.84;;;9.76;100.00
52469;BME280;38381;53.688;10.776;2024-02-14T14:05:45;101021.47;;;9.83;100.00
52469;BME280;38381;53.688;10.776;2024-02-14T14:10:45;101026.53;;;9.74;100.00
52469;BME280;38381;53.688;10.776;2024-02-14T14:15:46;101022.34;;;9.82;100.00
52469;BME280;38381;53.688;10.776;2024-02-14T14:20:46;101030.28;;;9.98;100.00
52469;BME280;38381;53.688;10.776;2024-02-14T14:25:47;101028.66;;;10.03;100.00
52469;BME280;38381;53.688;10.776;2024-02-14T14:30:47;101035.63;;;10.10;100.00
52469;BME280;38381;53.688;10.776;2024-02-14T14:35:48;101027.97;;;10.18;100.00
52469;BME280;38381;53.688;10.776;2024-02-14T14:40:55;101037.44;;;10.16;100.00
52469;BME280;38381;53.688;10.776;2024-02-14T14:45:56;101042.66;;;10.17;100.00
52469;BME280;38381;53.688;10.776;2024-02-14T14:50:57;101036.56;;;10.17;100.00
52469;BME280;38381;53.688;10.776;2024-02-14T14:55:57;101042.72;;;10.25;100.00
52469;BME280;38381;53.688;10.776;2024-02-14T15:01:00;101040.06;;;10.17;100.00
52469;BME280;38381;53.688;10.776;2024-02-14T15:06:00;101041.75;;;10.15;100.00
52469;BME280;38381;53.688;10.776;2024-02-14T15:11:01;101045.41;;;10.31;100.00
52469;BME280;38381;53.688;10.776;2024-02-14T15:16:01;101042.84;;;10.30;100.00
52469;BME280;38381;53.688;10.776;2024-02-14T15:21:04;101050.63;;;10.33;100.00
52469;BME280;38381;53.688;10.776;2024-02-14T15:26:05;101042.88;;;10.34;100.00
52469;BME280;38381;53.688;10.776;2024-02-14T15:31:07;101039.28;;;10.26;100.00
52469;BME280;38381;53.688;10.776;2024-02-14T15:36:26;101053.09;;;10.23;100.00
52469;BME280;38381;53.688;10.776;2024-02-14T15:41:27;101055.78;;;10.30;100.00
52469;BME280;38381;53.688;10.776;2024-02-14T15:46:27;101056.50;;;10.19;100.00
52469;BME280;38381;53.688;10.776;2024-02-14T15:51:28;101058.38;;;10.30;100.00
52469;BME280;38381;53.688;10.776;2024-02-14T15:56:28;101054.94;;;10.31;100.00
52469;BME280;38381;53.688;10.776;2024-02-14T16:01:29;101054.97;;;10.34;100.00
52469;BME280;38381;53.688;10.776;2024-02-14T16:06:29;101052.84;;;10.06;100.00
52469;BME280;38381;53.688;10.776;2024-02-14T16:11:30;101058.38;;;10.30;100.00
52469;BME280;38381;53.688;10.776;2024-02-14T16:16:31;101057.31;;;10.15;100.00
52469;BME280;38381;53.688;10.776;2024-02-14T16:21:32;101059.25;;;10.30;100.00
52469;BME280;38381;53.688;10.776;2024-02-14T16:26:34;101055.84;;;10.34;100.00
52469;BME280;38381;53.688;10.776;2024-02-14T16:31:35;101060.06;;;10.29;100.00
52469;BME280;38381;53.688;10.776;2024-02-14T16:36:35;101056.69;;;10.33;100.00
52469;BME280;38381;53.688;10.776;2024-02-14T16:41:36;101063.34;;;10.16;100.00
52469;BME280;38381;53.688;10.776;2024-02-14T16:46:37;101076.41;;;10.22;100.00
52469;BME280;38381;53.688;10.776;2024-02-14T16:51:38;101084.22;;;10.26;100.00
52469;BME280;38381;53.688;10.776;2024-02-14T16:56:38;101083.47;;;10.32;100.00
52469;BME280;38381;53.688;10.776;2024-02-14T17:01:39;101089.13;;;10.05;100.00
52469;BME280;38381;53.688;10.776;2024-02-14T17:06:39;101094.41;;;10.11;100.00
52469;BME280;38381;53.688;10.776;2024-02-14T17:11:39;101091.97;;;10.25;100.00
52469;BME280;38381;53.688;10.776;2024-02-14T17:16:40;101082.59;;;10.33;100.00
52469;BME280;38381;53.688;10.776;2024-02-14T17:21:42;101081.47;;;10.14;100.00
52469;BME280;38381;53.688;10.776;2024-02-14T17:26:43;101100.59;;;10.22;100.00
52469;BME280;38381;53.688;10.776;2024-02-14T17:31:44;101104.91;;;10.22;100.00
52469;BME280;38381;53.688;10.776;2024-02-14T17:36:45;101092.94;;;10.30;100.00
52469;BME280;38381;53.688;10.776;2024-02-14T17:41:45;101093.59;;;10.17;100.00
52469;BME280;38381;53.688;10.776;2024-02-14T17:46:46;101103.22;;;10.27;100.00
52469;BME280;38381;53.688;10.776;2024-02-14T17:51:46;101099.75;;;10.25;100.00
52469;BME280;38381;53.688;10.776;2024-02-14T17:56:47;101104.03;;;10.23;100.00
52469;BME280;38381;53.688;10.776;2024-02-14T18:01:47;101110.28;;;10.34;100.00
52469;BME280;38381;53.688;10.776;2024-02-14T18:06:49;101105.91;;;10.30;100.00
52469;BME280;38381;53.688;10.776;2024-02-14T18:11:49;101108.41;;;10.25;100.00
52469;BME280;38381;53.688;10.776;2024-02-14T18:16:50;101111.00;;;10.25;100.00
52469;BME280;38381;53.688;10.776;2024-02-14T18:21:51;101105.13;;;10.36;100.00
52469;BME280;38381;53.688;10.776;2024-02-14T18:26:51;101109.25;;;10.24;100.00
52469;BME280;38381;53.688;10.776;2024-02-14T18:31:51;101114.38;;;10.20;100.00
52469;BME280;38381;53.688;10.776;2024-02-14T18:36:52;101110.16;;;10.26;100.00
52469;BME280;38381;53.688;10.776;2024-02-14T18:41:53;101113.50;;;10.18;100.00
52469;BME280;38381;53.688;10.776;2024-02-14T18:46:54;101113.59;;;10.25;100.00
52469;BME280;38381;53.688;10.776;2024-02-14T18:51:54;101113.56;;;10.22;100.00
52469;BME280;38381;53.688;10.776;2024-02-14T18:56:55;101108.19;;;10.10;100.00
52469;BME280;38381;53.688;10.776;2024-02-14T19:01:55;101112.53;;;10.11;100.00
52469;BME280;38381;53.688;10.776;2024-02-14T19:06:56;101115.03;;;10.03;100.00
52469;BME280;38381;53.688;10.776;2024-02-14T19:11:57;101115.97;;;10.10;100.00
52469;BME280;38381;53.688;10.776;2024-02-14T19:16:57;101107.53;;;10.25;100.00
52469;BME280;38381;53.688;10.776;2024-02-14T19:21:58;101117.00;;;10.21;100.00
52469;BME280;38381;53.688;10.776;2024-02-14T19:26:58;101116.19;;;10.27;100.00
52469;BME280;38381;53.688;10.776;2024-02-14T19:31:59;101113.34;;;10.07;100.00
52469;BME280;38381;53.688;10.776;2024-02-14T19:36:59;101116.84;;;10.11;100.00
52469;BME280;38381;53.688;10.776;2024-02-14T19:42:00;101116.03;;;10.13;100.00
52469;BME280;38381;53.688;10.776;2024-02-14T19:47:00;101111.81;;;10.23;100.00
52469;BME280;38381;53.688;10.776;2024-02-14T19:52:00;101120.59;;;10.31;100.00
52469;BME280;38381;53.688;10.776;2024-02-14T19:57:03;101115.25;;;10.20;100.00
52469;BME280;38381;53.688;10.776;2024-02-14T20:02:04;101128.41;;;10.33;100.00
52469;BME280;38381;53.688;10.776;2024-02-14T20:07:05;101123.88;;;10.19;100.00
52469;BME280;38381;53.688;10.776;2024-02-14T20:12:22;101129.78;;;10.09;100.00
52469;BME280;38381;53.688;10.776;2024-02-14T20:17:23;101134.25;;;10.21;100.00
52469;BME280;38381;53.688;10.776;2024-02-14T20:22:23;101130.50;;;10.00;100.00
52469;BME280;38381;53.688;10.776;2024-02-14T20:27:28;101131.66;;;10.21;100.00
52469;BME280;38381;53.688;10.776;2024-02-14T20:32:29;101138.78;;;10.33;100.00
52469;BME280;38381;53.688;10.776;2024-02-14T20:37:29;101131.75;;;10.25;100.00
52469;BME280;38381;53.688;10.776;2024-02-14T20:42:29;101145.72;;;10.35;100.00
52469;BME280;38381;53.688;10.776;2024-02-14T20:47:30;101133.75;;;10.45;100.00
52469;BME280;38381;53.688;10.776;2024-02-14T20:52:30;101142.22;;;10.33;100.00
52469;BME280;38381;53.688;10.776;2024-02-14T20:57:31;101144.84;;;10.35;100.00
52469;BME280;38381;53.688;10.776;2024-02-14T21:02:32;101141.38;;;10.33;100.00
52469;BME280;38381;53.688;10.776;2024-02-14T21:07:33;101148.19;;;10.27;100.00
52469;BME280;38381;53.688;10.776;2024-02-14T21:12:33;101140.34;;;10.21;100.00
52469;BME280;38381;53.688;10.776;2024-02-14T21:17:34;101141.13;;;10.17;100.00
52469;BME280;38381;53.688;10.776;2024-02-14T21:22:34;101138.47;;;10.11;100.00
52469;BME280;38381;53.688;10.776;2024-02-14T21:27:36;101151.75;;;10.33;100.00
52469;BME280;38381;53.688;10.776;2024-02-14T21:32:36;101152.34;;;10.16;100.00
52469;BME280;38381;53.688;10.776;2024-02-14T21:37:37;101155.19;;;10.32;100.00
52469;BME280;38381;53.688;10.776;2024-02-14T21:42:38;101137.66;;;10.15;100.00
52469;BME280;38381;53.688;10.776;2024-02-14T21:47:39;101147.06;;;10.10;100.00
52469;BME280;38381;53.688;10.776;2024-02-14T21:52:40;101149.47;;;9.98;100.00
52469;BME280;38381;53.688;10.776;2024-02-14T21:57:40;101148.03;;;10.15;100.00
52469;BME280;38381;53.688;10.776;2024-02-14T22:02:40;101144.56;;;10.16;100.00
52469;BME280;38381;53.688;10.776;2024-02-14T22:07:42;101134.47;;;10.33;100.00
52469;BME280;38381;53.688;10.776;2024-02-14T22:12:43;101138.66;;;10.26;100.00
52469;BME280;38381;53.688;10.776;2024-02-14T22:17:43;101134.19;;;10.16;100.00
52469;BME280;38381;53.688;10.776;2024-02-14T22:22:44;101129.09;;;10.22;100.00
52469;BME280;38381;53.688;10.776;2024-02-14T22:27:44;101125.81;;;10.33;100.00
52469;BME280;38381;53.688;10.776;2024-02-14T22:32:44;101122.97;;;10.16;100.00
52469;BME280;38381;53.688;10.776;2024-02-14T22:37:45;101124.88;;;10.29;100.00
52469;BME280;38381;53.688;10.776;2024-02-14T22:42:45;101127.50;;;10.31;100.00
52469;BME280;38381;53.688;10.776;2024-02-14T22:47:46;101126.59;;;10.28;100.00
52469;BME280;38381;53.688;10.776;2024-02-14T22:52:47;101131.66;;;10.19;100.00
52469;BME280;38381;53.688;10.776;2024-02-14T22:57:47;101131.09;;;10.39;100.00
52469;BME280;38381;53.688;10.776;2024-02-14T23:02:48;101127.56;;;10.35;100.00
52469;BME280;38381;53.688;10.776;2024-02-14T23:07:50;101123.09;;;10.25;100.00
52469;BME280;38381;53.688;10.776;2024-02-14T23:12:50;101131.78;;;10.28;100.00
52469;BME280;38381;53.688;10.776;2024-02-14T23:17:50;101125.81;;;10.33;100.00
52469;BME280;38381;53.688;10.776;2024-02-14T23:22:51;101123.28;;;10.36;100.00
52469;BME280;38381;53.688;10.776;2024-02-14T23:27:51;101122.38;;;10.34;100.00
52469;BME280;38381;53.688;10.776;2024-02-14T23:32:51;101129.19;;;10.28;100.00
52469;BME280;38381;53.688;10.776;2024-02-14T23:37:52;101142.25;;;10.35;100.00
52469;BME280;38381;53.688;10.776;2024-02-14T23:42:53;101144.94;;;10.41;100.00
52469;BME280;38381;53.688;10.776;2024-02-14T23:47:59;101138.06;;;10.44;100.00
52469;BME280;38381;53.688;10.776;2024-02-14T23:52:59;101133.66;;;10.37;100.00
52469;BME280;38381;53.688;10.776;2024-02-14T23:58:00;101135.44;;;10.40;100.00
